Time,TemperatureF,DewpointF,PressureIn,WindDirection,WindDirectionDegrees,WindSpeedMPH,WindSpeedGustMPH,Humidity,HourlyPrecipIn,Conditions,Clouds,dailyrainin,SolarRadiationWatts/m^2,SoftwareType,DateUTC
2013-10-22 00:04:00,65.0,61.0,-100.00,NNE,20,1.0,4.0,87,0.00,,,0.00,11.000000,,2013-10-22 05:04:00,
2013-10-22 00:13:00,65.0,61.0,-100.00,NNE,20,1.0,4.0,87,0.00,,,0.00,11.000000,,2013-10-22 05:13:00,
2013-10-22 00:22:00,65.0,61.0,-100.00,NNE,20,1.0,4.0,87,0.00,,,0.00,11.000000,,2013-10-22 05:22:00,
2013-10-22 00:52:00,64.0,62.0,-100.00,NNW,338,2.0,3.0,93,0.00,,,0.00,11.000000,,2013-10-22 05:52:00,
2013-10-22 01:02:00,64.0,62.0,-100.00,NNW,338,2.0,3.0,93,0.00,,,0.00,11.000000,,2013-10-22 06:02:00,
2013-10-22 01:12:00,64.0,62.0,-100.00,NNW,338,2.0,3.0,93,0.00,,,0.00,11.000000,,2013-10-22 06:12:00,
2013-10-22 01:22:00,64.0,62.0,-100.00,NNW,338,2.0,3.0,93,0.00,,,0.00,11.000000,,2013-10-22 06:22:00,
2013-10-22 01:54:00,64.0,62.0,-100.00,North,360,3.0,7.0,92,0.00,,,0.00,11.000000,,2013-10-22 06:54:00,
2013-10-22 02:02:00,64.0,62.0,-100.00,North,360,3.0,7.0,92,0.00,,,0.00,11.000000,,2013-10-22 07:02:00,
2013-10-22 02:12:00,64.0,62.0,-100.00,North,360,3.0,7.0,92,0.00,,,0.00,11.000000,,2013-10-22 07:12:00,
2013-10-22 02:22:00,64.0,62.0,-100.00,North,360,3.0,7.0,92,0.00,,,0.00,11.000000,,2013-10-22 07:22:00,
2013-10-22 02:52:00,63.0,60.0,-100.00,North,357,3.0,6.0,91,0.00,,,0.00,11.000000,,2013-10-22 07:52:00,
2013-10-22 03:02:00,63.0,60.0,-100.00,North,357,3.0,6.0,91,0.00,,,0.00,11.000000,,2013-10-22 08:02:00,
2013-10-22 03:12:00,63.0,60.0,-100.00,North,357,3.0,6.0,91,0.00,,,0.00,11.000000,,2013-10-22 08:12:00,
2013-10-22 03:22:00,63.0,60.0,-100.00,North,357,3.0,6.0,91,0.00,,,0.00,11.000000,,2013-10-22 08:22:00,
2013-10-22 03:52:00,63.0,61.0,-100.00,North,356,1.0,3.0,93,0.00,,,0.00,11.000000,,2013-10-22 08:52:00,
2013-10-22 04:02:00,63.0,61.0,-100.00,North,356,1.0,3.0,93,0.00,,,0.00,11.000000,,2013-10-22 09:02:00,
2013-10-22 04:11:00,63.0,61.0,-100.00,North,356,1.0,3.0,93,0.00,,,0.00,11.000000,,2013-10-22 09:11:00,
2013-10-22 04:22:00,63.0,61.0,-100.00,North,356,1.0,3.0,93,0.00,,,0.00,11.000000,,2013-10-22 09:22:00,
2013-10-22 04:54:00,63.0,62.0,-100.00,NW,323,3.0,5.0,95,0.00,,,0.00,11.000000,,2013-10-22 09:54:00,
2013-10-22 05:03:00,63.0,62.0,-100.00,NW,323,3.0,5.0,95,0.00,,,0.00,11.000000,,2013-10-22 10:03:00,
2013-10-22 05:13:00,63.0,62.0,-100.00,NW,323,3.0,5.0,95,0.00,,,0.00,11.000000,,2013-10-22 10:13:00,
2013-10-22 05:23:00,63.0,62.0,-100.00,NW,323,3.0,5.0,95,0.00,,,0.00,11.000000,,2013-10-22 10:23:00,
2013-10-22 05:53:00,63.0,61.0,-100.00,North,350,2.0,5.0,93,0.00,,,0.00,11.000000,,2013-10-22 10:53:00,
2013-10-22 06:03:00,63.0,61.0,-100.00,North,350,2.0,5.0,93,0.00,,,0.00,11.000000,,2013-10-22 11:03:00,
2013-10-22 06:12:00,63.0,61.0,-100.00,North,350,2.0,5.0,93,0.00,,,0.00,11.000000,,2013-10-22 11:12:00,
2013-10-22 06:22:00,63.0,61.0,-100.00,North,350,2.0,5.0,93,0.00,,,0.00,11.000000,,2013-10-22 11:22:00,
2013-10-22 06:53:00,63.0,61.0,-100.00,ENE,75,1.0,3.0,93,0.00,,,0.00,11.000000,,2013-10-22 11:53:00,
2013-10-22 07:01:00,63.0,61.0,-100.00,ENE,75,1.0,3.0,93,0.00,,,0.00,11.000000,,2013-10-22 12:01:00,
2013-10-22 07:11:00,63.0,61.0,-100.00,ENE,75,1.0,3.0,93,0.00,,,0.00,11.000000,,2013-10-22 12:11:00,
2013-10-22 07:22:00,63.0,61.0,-100.00,ENE,75,1.0,3.0,93,0.00,,,0.00,11.000000,,2013-10-22 12:22:00,
2013-10-22 07:52:00,61.0,60.0,-100.00,NNW,336,1.0,3.0,97,0.00,,,0.00,11.000000,,2013-10-22 12:52:00,
2013-10-22 08:01:00,61.0,60.0,-100.00,NNW,336,1.0,3.0,97,0.00,,,0.00,11.000000,,2013-10-22 13:01:00,
2013-10-22 08:12:00,61.0,60.0,-100.00,NNW,336,1.0,3.0,97,0.00,,,0.00,11.000000,,2013-10-22 13:12:00,
2013-10-22 08:21:00,61.0,60.0,-100.00,NNW,336,1.0,3.0,97,0.00,,,0.00,11.000000,,2013-10-22 13:21:00,
2013-10-22 08:53:00,64.0,61.0,-100.00,North,0,3.0,6.0,91,0.00,,,0.00,77.000000,,2013-10-22 13:53:00,
2013-10-22 09:02:00,64.0,61.0,-100.00,North,0,3.0,6.0,91,0.00,,,0.00,77.000000,,2013-10-22 14:02:00,
2013-10-22 09:12:00,64.0,61.0,-100.00,North,0,3.0,6.0,91,0.00,,,0.00,77.000000,,2013-10-22 14:12:00,
2013-10-22 09:21:00,64.0,61.0,-100.00,North,0,3.0,6.0,91,0.00,,,0.00,77.000000,,2013-10-22 14:21:00,
2013-10-22 09:52:00,68.0,62.0,-100.00,NE,56,3.0,6.0,81,0.00,,,0.00,232.000000,,2013-10-22 14:52:00,
2013-10-22 10:01:00,68.0,62.0,-100.00,NE,56,3.0,6.0,81,0.00,,,0.00,232.000000,,2013-10-22 15:01:00,
2013-10-22 10:12:00,68.0,62.0,-100.00,NE,56,3.0,6.0,81,0.00,,,0.00,232.000000,,2013-10-22 15:12:00,
2013-10-22 10:22:00,68.0,62.0,-100.00,NE,56,3.0,6.0,81,0.00,,,0.00,232.000000,,2013-10-22 15:22:00,
2013-10-22 10:54:00,72.0,62.0,-100.00,ENE,62,2.0,7.0,72,0.00,,,0.00,369.000000,,2013-10-22 15:54:00,
2013-10-22 11:04:00,72.0,62.0,-100.00,ENE,62,2.0,7.0,72,0.00,,,0.00,369.000000,,2013-10-22 16:04:00,
2013-10-22 11:13:00,72.0,62.0,-100.00,ENE,62,2.0,7.0,72,0.00,,,0.00,369.000000,,2013-10-22 16:13:00,
2013-10-22 11:23:00,72.0,62.0,-100.00,ENE,62,2.0,7.0,72,0.00,,,0.00,369.000000,,2013-10-22 16:23:00,
2013-10-22 11:53:00,74.0,63.0,-100.00,NW,317,3.0,6.0,69,0.00,,,0.00,387.000000,,2013-10-22 16:53:00,
2013-10-22 12:03:00,74.0,63.0,-100.00,NW,317,3.0,6.0,69,0.00,,,0.00,387.000000,,2013-10-22 17:03:00,
2013-10-22 12:12:00,74.0,63.0,-100.00,NW,317,3.0,6.0,69,0.00,,,0.00,387.000000,,2013-10-22 17:12:00,
2013-10-22 12:22:00,74.0,63.0,-100.00,NW,317,3.0,6.0,69,0.00,,,0.00,387.000000,,2013-10-22 17:22:00,
2013-10-22 12:53:00,75.0,62.0,-100.00,NNW,328,4.0,10.0,64,0.00,,,-99.99,427.000000,,2013-10-22 17:53:00,
2013-10-22 13:02:00,75.0,62.0,-100.00,NNW,328,4.0,10.0,64,0.00,,,-99.99,427.000000,,2013-10-22 18:02:00,
2013-10-22 13:12:00,75.0,62.0,-100.00,NNW,328,4.0,10.0,64,0.00,,,-99.99,427.000000,,2013-10-22 18:12:00,
2013-10-22 13:22:00,75.0,62.0,-100.00,NNW,328,4.0,10.0,64,0.00,,,-99.99,427.000000,,2013-10-22 18:22:00,
2013-10-22 13:52:00,79.0,59.0,-100.00,NNW,335,6.0,12.0,50,0.00,,,0.00,660.000000,,2013-10-22 18:52:00,
2013-10-22 14:02:00,79.0,59.0,-100.00,NNW,335,6.0,12.0,50,0.00,,,0.00,660.000000,,2013-10-22 19:02:00,
2013-10-22 14:12:00,79.0,59.0,-100.00,NNW,335,6.0,12.0,50,0.00,,,0.00,660.000000,,2013-10-22 19:12:00,
2013-10-22 14:22:00,79.0,59.0,-100.00,NNW,335,6.0,12.0,50,0.00,,,0.00,660.000000,,2013-10-22 19:22:00,
2013-10-22 14:53:00,80.0,56.0,-100.00,NNW,331,6.0,12.0,44,0.00,,,0.00,769.000000,,2013-10-22 19:53:00,
2013-10-22 15:03:00,80.0,56.0,-100.00,NNW,331,6.0,12.0,44,0.00,,,0.00,769.000000,,2013-10-22 20:03:00,
2013-10-22 15:11:00,80.0,56.0,-100.00,NNW,331,6.0,12.0,44,0.00,,,0.00,769.000000,,2013-10-22 20:11:00,
2013-10-22 15:22:00,80.0,56.0,-100.00,NNW,331,6.0,12.0,44,0.00,,,0.00,769.000000,,2013-10-22 20:22:00,
2013-10-22 15:52:00,80.0,51.0,-100.00,WNW,296,4.0,11.0,36,0.00,,,0.00,602.000000,,2013-10-22 20:52:00,
2013-10-22 16:02:00,80.0,51.0,-100.00,WNW,296,4.0,11.0,36,0.00,,,0.00,602.000000,,2013-10-22 21:02:00,
2013-10-22 16:12:00,80.0,51.0,-100.00,WNW,296,4.0,11.0,36,0.00,,,0.00,602.000000,,2013-10-22 21:12:00,
2013-10-22 16:23:00,80.0,51.0,-100.00,WNW,296,4.0,11.0,36,0.00,,,0.00,602.000000,,2013-10-22 21:23:00,
2013-10-22 16:54:00,81.0,53.0,-100.00,NW,305,4.0,10.0,38,0.00,,,0.00,453.000000,,2013-10-22 21:54:00,
2013-10-22 17:04:00,81.0,53.0,-100.00,NW,305,4.0,10.0,38,0.00,,,0.00,453.000000,,2013-10-22 22:04:00,
2013-10-22 17:14:00,81.0,53.0,-100.00,NW,305,4.0,10.0,38,0.00,,,0.00,453.000000,,2013-10-22 22:14:00,
2013-10-22 17:24:00,81.0,53.0,-100.00,NW,305,4.0,10.0,38,0.00,,,0.00,453.000000,,2013-10-22 22:24:00,
2013-10-22 17:54:00,78.0,55.0,-100.00,NW,321,3.0,9.0,45,0.00,,,0.00,228.000000,,2013-10-22 22:54:00,
2013-10-22 18:03:00,78.0,55.0,-100.00,NW,321,3.0,9.0,45,0.00,,,0.00,228.000000,,2013-10-22 23:03:00,
2013-10-22 18:12:00,78.0,55.0,-100.00,NW,321,3.0,9.0,45,0.00,,,0.00,228.000000,,2013-10-22 23:12:00,
2013-10-22 18:23:00,78.0,55.0,-100.00,NW,321,3.0,9.0,45,0.00,,,0.00,228.000000,,2013-10-22 23:23:00,
2013-10-22 18:53:00,71.0,56.0,-100.00,West,276,2.0,7.0,60,0.00,,,0.00,57.000000,,2013-10-22 23:53:00,
2013-10-22 19:02:00,71.0,56.0,-100.00,West,276,2.0,7.0,60,0.00,,,0.00,57.000000,,2013-10-23 00:02:00,
2013-10-22 19:11:00,71.0,56.0,-100.00,West,276,2.0,7.0,60,0.00,,,0.00,57.000000,,2013-10-23 00:11:00,
2013-10-22 19:22:00,71.0,56.0,-100.00,West,276,2.0,7.0,60,0.00,,,0.00,57.000000,,2013-10-23 00:22:00,
2013-10-22 20:11:00,64.0,59.0,-100.00,North,353,0.0,3.0,84,0.00,,,0.00,11.000000,,2013-10-23 01:11:00,
2013-10-22 20:23:00,64.0,59.0,-100.00,North,353,0.0,3.0,84,0.00,,,0.00,11.000000,,2013-10-23 01:23:00,
2013-10-22 21:11:00,61.0,58.0,-100.00,NW,306,0.0,0.0,91,0.00,,,0.00,11.000000,,2013-10-23 02:11:00,
2013-10-22 21:22:00,61.0,58.0,-100.00,NW,306,0.0,0.0,91,0.00,,,0.00,11.000000,,2013-10-23 02:22:00,
2013-10-22 21:54:00,67.0,56.0,-100.00,NNW,340,6.0,11.0,69,0.00,,,0.00,11.000000,,2013-10-23 02:54:00,
2013-10-22 22:02:00,67.0,56.0,-100.00,NNW,340,6.0,11.0,69,0.00,,,0.00,11.000000,,2013-10-23 03:02:00,
2013-10-22 22:12:00,67.0,56.0,-100.00,NNW,340,6.0,11.0,69,0.00,,,0.00,11.000000,,2013-10-23 03:12:00,
2013-10-22 22:22:00,67.0,56.0,-100.00,NNW,340,6.0,11.0,69,0.00,,,0.00,11.000000,,2013-10-23 03:22:00,
2013-10-22 22:55:00,65.0,57.0,-100.00,NW,326,6.0,10.0,75,0.00,,,0.00,11.000000,,2013-10-23 03:55:00,
2013-10-22 23:04:00,65.0,57.0,-100.00,NW,326,6.0,10.0,75,0.00,,,0.00,11.000000,,2013-10-23 04:04:00,
2013-10-22 23:14:00,65.0,57.0,-100.00,NW,326,6.0,10.0,75,0.00,,,0.00,11.000000,,2013-10-23 04:14:00,
2013-10-22 23:24:00,65.0,57.0,-100.00,NW,326,6.0,10.0,75,0.00,,,0.00,11.000000,,2013-10-23 04:24:00,
2013-10-22 23:55:00,62.0,56.0,-100.00,NNW,332,3.0,10.0,81,0.00,,,0.00,11.000000,,2013-10-23 04:55:00,